Time;durP1;ratioP1;P1;durP2;ratioP2;P2;SDS_P1;SDS_P2;PMS_P1;PMS_P2;Temp;Humidity;BMP_temperature;BMP_pressure;BME280_temperature;BME280_humidity;BME280_pressure;Samples;Min_cycle;Max_cycle;Signal;HPM_P1;HPM_P2
2022/06/11 00:01:40;;;;;;;6.32;3.00;;;20.40;67.40;;;;;;5075308;28;20700;-82
2022/06/11 00:04:11;;;;;;;4.68;3.05;;;20.30;68.20;;;;;;5082101;28;20246;-82
2022/06/11 00:06:41;;;;;;;4.30;3.00;;;20.30;68.20;;;;;;5065926;28;20216;-82
2022/06/11 00:09:08;;;;;;;3.63;3.25;;;20.30;67.90;;;;;;5082328;28;20177;-82
2022/06/11 00:11:34;;;;;;;19.63;4.63;;;20.30;68.00;;;;;;5074416;28;20188;-83
2022/06/11 00:14:00;;;;;;;8.00;4.00;;;20.20;68.20;;;;;;5080150;28;20247;-82
2022/06/11 00:16:27;;;;;;;8.60;3.85;;;20.30;68.10;;;;;;5080358;28;20256;-83
2022/06/11 00:18:54;;;;;;;5.53;3.38;;;20.30;67.90;;;;;;5062767;28;20187;-82
2022/06/11 00:21:21;;;;;;;5.45;3.50;;;20.20;68.00;;;;;;5079749;28;20183;-82
2022/06/11 00:23:47;;;;;;;4.50;3.10;;;20.20;68.00;;;;;;5082557;28;20693;-82
2022/06/11 00:26:13;;;;;;;4.07;2.97;;;20.10;68.40;;;;;;5063392;28;20238;-82
2022/06/11 00:28:40;;;;;;;4.70;3.25;;;20.10;69.00;;;;;;5085844;28;20212;-82
2022/06/11 00:31:07;;;;;;;3.28;2.90;;;20.00;68.40;;;;;;5083165;28;20245;-82
2022/06/11 00:33:33;;;;;;;3.70;3.40;;;20.10;68.50;;;;;;5086402;28;20205;-83
2022/06/11 00:35:59;;;;;;;4.10;3.35;;;20.00;68.40;;;;;;5079740;28;20219;-83
2022/06/11 00:38:25;;;;;;;4.30;3.45;;;19.90;69.80;;;;;;5087149;28;20633;-83
2022/06/11 00:40:53;;;;;;;4.88;3.63;;;19.50;71.90;;;;;;5086321;28;20205;-83
2022/06/11 00:43:21;;;;;;;3.67;3.38;;;19.20;73.00;;;;;;5089982;28;20235;-83
2022/06/11 00:45:52;;;;;;;5.03;2.72;;;19.00;74.70;;;;;;5072508;28;20192;-83
2022/06/11 00:48:39;;;;;;;3.75;3.42;;;19.20;74.20;;;;;;5084617;28;20278;-83
2022/06/11 00:51:18;;;;;;;4.63;3.67;;;19.30;73.40;;;;;;5089556;28;20211;-83
2022/06/11 00:53:50;;;;;;;4.20;3.40;;;19.40;73.10;;;;;;5086723;28;20484;-83
2022/06/11 00:56:25;;;;;;;3.78;3.25;;;19.40;72.70;;;;;;5086255;28;20184;-83
2022/06/11 00:58:54;;;;;;;3.65;3.20;;;19.20;73.30;;;;;;5094876;28;20182;-84
2022/06/11 01:01:23;;;;;;;3.63;2.90;;;19.10;74.10;;;;;;5087524;28;20191;-84
2022/06/11 01:03:52;;;;;;;4.03;3.28;;;19.20;73.30;;;;;;5075839;28;20201;-84
2022/06/11 01:06:28;;;;;;;3.50;3.08;;;19.40;73.00;;;;;;5087576;28;20186;-83
2022/06/11 01:09:05;;;;;;;4.20;3.35;;;19.30;73.00;;;;;;5083598;28;20233;-83
2022/06/11 01:11:46;;;;;;;4.20;3.22;;;19.00;74.50;;;;;;5065142;28;20206;-83
2022/06/11 01:14:33;;;;;;;5.82;3.55;;;19.00;75.00;;;;;;5080731;28;20225;-83
2022/06/11 01:17:08;;;;;;;3.47;3.17;;;19.20;74.00;;;;;;5074735;28;20205;-84
2022/06/11 01:20:00;;;;;;;4.43;3.67;;;19.30;73.40;;;;;;5078731;28;20190;-83
2022/06/11 01:23:30;;;;;;;3.60;3.30;;;19.20;73.60;;;;;;5081552;28;20207;-83
2022/06/11 01:26:22;;;;;;;3.80;3.50;;;19.20;73.80;;;;;;5033975;28;20265;-83
2022/06/11 01:29:05;;;;;;;3.65;3.35;;;19.30;73.50;;;;;;5038325;28;20211;-83
2022/06/11 01:32:01;;;;;;;3.90;3.50;;;19.40;73.10;;;;;;5082831;28;20197;-83
2022/06/11 01:34:44;;;;;;;3.75;3.17;;;19.30;73.20;;;;;;5077562;28;20187;-83
2022/06/11 01:37:28;;;;;;;4.22;3.08;;;19.30;73.50;;;;;;5079990;28;20699;-83
2022/06/11 01:40:09;;;;;;;4.85;3.35;;;19.30;73.30;;;;;;5077281;28;20252;-83
2022/06/11 01:42:46;;;;;;;3.60;3.30;;;19.30;73.30;;;;;;5079174;28;20199;-83
2022/06/11 01:45:15;;;;;;;3.50;3.20;;;19.20;73.40;;;;;;5086210;28;20658;-83
2022/06/11 01:47:42;;;;;;;3.80;3.42;;;19.10;74.70;;;;;;5085987;28;20214;-83
2022/06/11 01:50:10;;;;;;;3.50;3.20;;;19.00;75.10;;;;;;5086828;28;20271;-83
2022/06/11 01:53:01;;;;;;;4.35;3.40;;;18.90;74.60;;;;;;5085926;28;20257;-83
2022/06/11 01:55:44;;;;;;;6.00;3.22;;;18.90;74.60;;;;;;5090269;28;20171;-83
2022/06/11 01:58:40;;;;;;;3.83;3.13;;;18.80;75.00;;;;;;5083727;28;20218;-83
2022/06/11 02:01:33;;;;;;;3.22;2.92;;;18.80;74.60;;;;;;5084744;28;20176;-83
2022/06/11 02:04:25;;;;;;;3.72;3.42;;;18.90;74.40;;;;;;5081884;28;20207;-83
2022/06/11 02:07:09;;;;;;;3.35;3.05;;;18.90;74.30;;;;;;5079467;28;20515;-83
2022/06/11 02:09:49;;;;;;;3.78;3.50;;;19.00;74.10;;;;;;5081638;28;20191;-83
2022/06/11 02:12:38;;;;;;;3.90;3.50;;;18.90;74.60;;;;;;5083858;28;20210;-83
2022/06/11 02:15:18;;;;;;;4.10;3.38;;;18.90;75.60;;;;;;5082630;28;20266;-84
2022/06/11 02:17:49;;;;;;;4.00;3.70;;;18.90;75.10;;;;;;5085629;28;20180;-83
2022/06/11 02:20:24;;;;;;;3.60;3.40;;;18.90;75.70;;;;;;5087216;28;20892;-83
2022/06/11 02:22:53;;;;;;;3.55;3.13;;;18.60;76.00;;;;;;5079769;28;20221;-83
2022/06/11 02:25:27;;;;;;;4.45;3.60;;;18.80;75.60;;;;;;5085178;28;20184;-83
2022/06/11 02:27:57;;;;;;;3.78;3.40;;;18.80;76.00;;;;;;5089452;28;20259;-83
2022/06/11 02:30:26;;;;;;;4.78;3.85;;;18.90;75.70;;;;;;5100644;28;20179;-83
2022/06/11 02:32:52;;;;;;;3.97;3.67;;;18.80;77.00;;;;;;5088755;28;20796;-83
2022/06/11 02:35:55;;;;;;;3.90;3.60;;;18.70;77.00;;;;;;5071095;28;20251;-84
2022/06/11 02:38:23;;;;;;;4.75;3.70;;;18.70;77.20;;;;;;5088910;28;20249;-83
2022/06/11 02:41:12;;;;;;;4.38;3.25;;;18.70;76.40;;;;;;5087452;28;20198;-83
2022/06/11 02:43:38;;;;;;;3.33;3.13;;;18.70;76.30;;;;;;5085123;28;20229;-83
2022/06/11 02:48:51;;;;;;;3.83;3.50;;;18.80;75.40;;;;;;5090735;28;20218;-83
2022/06/11 02:51:19;;;;;;;4.85;3.28;;;18.70;75.00;;;;;;5102500;28;20171;-83
2022/06/11 02:53:44;;;;;;;3.60;3.30;;;18.60;76.00;;;;;;5093892;28;20239;-83
2022/06/11 02:56:11;;;;;;;7.65;3.38;;;18.70;75.50;;;;;;5075774;28;20195;-83
2022/06/11 02:58:37;;;;;;;3.53;3.28;;;18.70;74.80;;;;;;5093047;28;20184;-83
2022/06/11 03:01:04;;;;;;;3.33;3.03;;;18.70;75.30;;;;;;5089921;28;20215;-84
2022/06/11 03:03:30;;;;;;;4.00;3.70;;;18.70;74.90;;;;;;5090508;28;20225;-83
2022/06/11 03:05:58;;;;;;;4.00;3.63;;;18.60;74.90;;;;;;5091611;28;20192;-83
2022/06/11 03:08:24;;;;;;;4.15;3.75;;;18.50;76.00;;;;;;5091004;28;20204;-83
2022/06/11 03:10:54;;;;;;;3.60;3.30;;;18.40;76.10;;;;;;5086932;28;20205;-83
2022/06/11 03:13:21;;;;;;;4.32;3.30;;;18.40;75.70;;;;;;5087306;28;20199;-83
2022/06/11 03:15:47;;;;;;;3.72;3.42;;;18.50;75.40;;;;;;5082604;28;20215;-83
2022/06/11 03:18:14;;;;;;;4.00;3.60;;;18.50;75.10;;;;;;5084270;28;20562;-83
2022/06/11 03:20:40;;;;;;;3.90;3.60;;;18.40;75.00;;;;;;5088119;28;20229;-83
2022/06/11 03:23:07;;;;;;;4.60;3.40;;;18.30;75.70;;;;;;5086656;28;20239;-83
2022/06/11 03:25:33;;;;;;;3.63;3.33;;;18.30;75.70;;;;;;5085679;28;20183;-83
2022/06/11 03:28:15;;;;;;;4.10;3.65;;;18.30;75.30;;;;;;5076089;28;20277;-83
2022/06/11 03:30:42;;;;;;;3.85;3.45;;;18.40;75.10;;;;;;5081239;28;20205;-83
2022/06/11 03:33:07;;;;;;;4.07;3.47;;;18.40;75.10;;;;;;5093931;28;20567;-83
2022/06/11 03:35:33;;;;;;;3.60;3.30;;;18.30;75.40;;;;;;5079414;28;20272;-83
2022/06/11 03:38:00;;;;;;;3.92;3.60;;;18.30;75.70;;;;;;5072723;28;20207;-83
2022/06/11 03:40:26;;;;;;;4.30;3.90;;;18.30;75.50;;;;;;5090893;28;20194;-83
2022/06/11 03:42:52;;;;;;;3.45;3.10;;;18.30;75.10;;;;;;5070819;28;20220;-83
2022/06/11 03:45:18;;;;;;;4.20;3.78;;;18.30;75.00;;;;;;5094181;28;20242;-83
2022/06/11 03:47:44;;;;;;;3.60;3.30;;;18.20;75.30;;;;;;5088130;28;20209;-83
2022/06/11 03:50:18;;;;;;;3.90;3.60;;;18.10;76.20;;;;;;5091610;28;20184;-83
2022/06/11 03:52:44;;;;;;;4.25;3.85;;;18.10;75.80;;;;;;5096451;28;20380;-83
2022/06/11 03:55:10;;;;;;;4.05;3.30;;;18.10;75.50;;;;;;5086206;28;20735;-83
2022/06/11 03:57:36;;;;;;;3.90;3.60;;;18.10;75.60;;;;;;5084516;28;20191;-83
2022/06/11 04:00:07;;;;;;;5.13;3.83;;;18.20;75.10;;;;;;5088575;28;20311;-83
2022/06/11 04:02:32;;;;;;;4.07;3.72;;;18.20;75.40;;;;;;5084234;28;20199;-83
2022/06/11 04:04:58;;;;;;;3.97;3.67;;;18.20;75.50;;;;;;5066980;28;20251;-83
2022/06/11 04:07:24;;;;;;;3.90;3.60;;;18.10;75.40;;;;;;5088558;28;20223;-83
2022/06/11 04:09:50;;;;;;;4.10;3.78;;;18.20;75.20;;;;;;5085085;28;20207;-83
2022/06/11 04:12:15;;;;;;;4.05;3.67;;;18.20;75.10;;;;;;5083632;28;20203;-83
2022/06/11 04:14:44;;;;;;;4.93;3.80;;;18.30;75.20;;;;;;5083288;28;20650;-83
2022/06/11 04:17:20;;;;;;;3.70;3.38;;;18.20;75.00;;;;;;5084815;28;20192;-83
2022/06/11 04:19:48;;;;;;;4.20;3.80;;;18.20;75.10;;;;;;5084072;28;20241;-83
2022/06/11 04:22:14;;;;;;;4.18;3.75;;;18.20;74.90;;;;;;5083145;28;20278;-83
2022/06/11 04:24:41;;;;;;;4.18;3.78;;;18.20;75.30;;;;;;5071796;28;20196;-83
2022/06/11 04:27:09;;;;;;;3.78;3.53;;;18.20;75.30;;;;;;5084207;28;20718;-83
2022/06/11 04:29:39;;;;;;;7.15;4.15;;;18.30;75.40;;;;;;5087708;28;20234;-83
2022/06/11 04:32:07;;;;;;;4.00;3.70;;;18.20;75.20;;;;;;5083758;28;20204;-84
2022/06/11 04:34:34;;;;;;;5.97;4.15;;;18.20;75.60;;;;;;5089748;28;20183;-83
2022/06/11 04:37:00;;;;;;;4.90;3.58;;;18.20;75.40;;;;;;5067732;28;20567;-83
2022/06/11 04:39:28;;;;;;;6.35;4.18;;;18.20;75.40;;;;;;5083729;28;20694;-84
2022/06/11 04:41:55;;;;;;;3.92;3.63;;;18.20;75.90;;;;;;5085331;28;20190;-84
2022/06/11 04:44:21;;;;;;;5.13;4.22;;;18.20;75.80;;;;;;5089884;28;20265;-85
2022/06/11 04:46:48;;;;;;;4.97;4.20;;;18.30;75.50;;;;;;5088172;28;20290;-84
2022/06/11 04:49:14;;;;;;;4.22;3.72;;;18.30;75.50;;;;;;5087499;28;20184;-85
2022/06/11 04:51:40;;;;;;;4.22;3.72;;;18.40;75.00;;;;;;5088156;28;20209;-84
2022/06/11 04:54:06;;;;;;;4.22;3.88;;;18.40;74.70;;;;;;5066219;28;20179;-84
2022/06/11 04:56:32;;;;;;;4.90;3.70;;;18.50;75.10;;;;;;5088336;28;20183;-84
2022/06/11 04:58:58;;;;;;;4.70;3.70;;;18.50;74.60;;;;;;5092515;28;20237;-84
2022/06/11 05:01:25;;;;;;;6.43;3.90;;;18.60;74.90;;;;;;5086141;28;20598;-85
2022/06/11 05:03:51;;;;;;;4.20;3.80;;;18.60;74.20;;;;;;5087546;28;20210;-85
2022/06/11 05:06:20;;;;;;;4.60;3.92;;;18.60;75.10;;;;;;5088426;28;20191;-85
2022/06/11 05:08:46;;;;;;;4.57;3.92;;;18.50;73.50;;;;;;5088969;28;20226;-84
2022/06/11 05:11:12;;;;;;;4.57;4.10;;;18.40;73.50;;;;;;5083842;28;20208;-84
2022/06/11 05:13:38;;;;;;;5.60;4.10;;;18.30;74.60;;;;;;5084090;28;20646;-84
2022/06/11 05:16:04;;;;;;;4.10;3.70;;;18.20;75.10;;;;;;5069289;28;20191;-84
2022/06/11 05:18:31;;;;;;;4.97;3.70;;;18.20;74.30;;;;;;5076328;28;20186;-84
2022/06/11 05:20:56;;;;;;;6.45;3.97;;;18.10;75.90;;;;;;5081016;28;20271;-84
2022/06/11 05:23:22;;;;;;;5.38;4.30;;;17.90;76.60;;;;;;5082679;28;20222;-84
2022/06/11 05:25:49;;;;;;;4.22;3.63;;;17.90;77.60;;;;;;5063036;28;20198;-84
2022/06/11 05:28:24;;;;;;;4.13;3.78;;;17.90;78.00;;;;;;5081997;28;20205;-84
2022/06/11 05:30:52;;;;;;;8.18;4.30;;;18.00;78.00;;;;;;5081958;28;20176;-84
2022/06/11 05:33:19;;;;;;;5.53;4.60;;;18.10;77.20;;;;;;5080437;28;20376;-84
2022/06/11 05:35:45;;;;;;;4.90;3.85;;;18.10;77.00;;;;;;5080232;28;20195;-84
2022/06/11 05:38:14;;;;;;;6.32;4.53;;;18.10;78.30;;;;;;5079966;28;20190;-84
2022/06/11 05:40:43;;;;;;;5.68;4.90;;;18.10;77.10;;;;;;5081920;28;20185;-84
2022/06/11 05:43:09;;;;;;;5.07;4.38;;;18.00;77.10;;;;;;5077768;28;20727;-84
2022/06/11 05:45:45;;;;;;;5.30;4.90;;;17.90;78.20;;;;;;5080816;28;20249;-86
2022/06/11 05:48:12;;;;;;;4.75;4.30;;;18.10;77.10;;;;;;5077660;28;20198;-85
2022/06/11 05:50:41;;;;;;;5.40;4.90;;;18.00;77.70;;;;;;5075182;28;20248;-84
2022/06/11 05:53:08;;;;;;;6.65;5.10;;;17.80;78.60;;;;;;5063808;28;20269;-84
2022/06/11 05:55:39;;;;;;;6.63;4.85;;;17.70;79.10;;;;;;5082740;28;20185;-84
2022/06/11 05:58:08;;;;;;;5.53;4.60;;;17.60;80.90;;;;;;5081143;28;20218;-84
2022/06/11 06:00:35;;;;;;;6.45;5.10;;;17.60;80.90;;;;;;5080231;28;20184;-84
2022/06/11 06:03:01;;;;;;;5.73;4.60;;;17.70;81.00;;;;;;5082391;28;20197;-84
2022/06/11 06:05:29;;;;;;;6.63;4.43;;;17.80;80.20;;;;;;5080309;28;20197;-84
2022/06/11 06:07:55;;;;;;;4.63;4.22;;;17.80;79.90;;;;;;5080961;28;20216;-84
2022/06/11 06:10:23;;;;;;;4.97;4.35;;;17.90;81.30;;;;;;5082898;28;20205;-84
2022/06/11 06:12:49;;;;;;;6.13;4.53;;;18.00;79.10;;;;;;5082873;28;20217;-84
2022/06/11 06:15:18;;;;;;;5.60;4.60;;;18.20;78.10;;;;;;5082789;28;20183;-84
2022/06/11 06:17:43;;;;;;;5.70;4.80;;;18.30;76.90;;;;;;5082418;28;20187;-84
2022/06/11 06:20:13;;;;;;;5.85;4.45;;;18.30;77.70;;;;;;5082013;28;20201;-84
2022/06/11 06:22:39;;;;;;;4.93;4.50;;;18.20;78.00;;;;;;5065357;28;20211;-84
2022/06/11 06:25:05;;;;;;;5.45;4.90;;;18.20;78.00;;;;;;5080499;28;20205;-84
2022/06/11 06:27:30;;;;;;;9.05;5.32;;;18.20;78.40;;;;;;5084994;28;20234;-84
2022/06/11 06:29:56;;;;;;;5.85;4.65;;;18.40;77.20;;;;;;5085962;28;20217;-84
2022/06/11 06:32:22;;;;;;;4.97;4.47;;;18.50;77.50;;;;;;5085115;28;20211;-84
2022/06/11 06:34:47;;;;;;;7.78;4.63;;;18.50;75.50;;;;;;5084196;28;20187;-84
2022/06/11 06:37:13;;;;;;;6.18;4.40;;;18.50;76.60;;;;;;5088036;28;20245;-84
2022/06/11 06:39:39;;;;;;;7.47;4.60;;;18.70;76.00;;;;;;5069047;28;20179;-84
2022/06/11 06:42:06;;;;;;;4.57;4.18;;;18.90;74.00;;;;;;5083037;28;20605;-84
2022/06/11 06:44:32;;;;;;;4.97;4.55;;;19.10;73.40;;;;;;5089787;28;20221;-84
2022/06/11 06:46:58;;;;;;;8.18;4.05;;;19.30;73.20;;;;;;5088195;28;20222;-85
2022/06/11 06:49:24;;;;;;;5.90;4.80;;;19.20;72.70;;;;;;5090904;28;20235;-84
2022/06/11 06:51:50;;;;;;;5.13;4.63;;;19.20;72.90;;;;;;5049469;28;20183;-85
2022/06/11 06:54:15;;;;;;;4.85;4.30;;;19.30;73.60;;;;;;5083624;28;20209;-85
2022/06/11 06:56:41;;;;;;;6.00;4.88;;;19.40;72.90;;;;;;5084308;28;20202;-84
2022/06/11 06:59:07;;;;;;;9.63;4.50;;;19.50;73.60;;;;;;5084215;28;20210;-84
2022/06/11 07:01:34;;;;;;;8.68;3.88;;;19.50;72.40;;;;;;5081585;28;20230;-84
2022/06/11 07:03:59;;;;;;;6.97;4.45;;;19.60;71.90;;;;;;5082174;28;20215;-85
2022/06/11 07:06:26;;;;;;;6.57;4.47;;;19.70;70.00;;;;;;5086950;28;20203;-85
2022/06/11 07:08:53;;;;;;;5.35;4.32;;;19.90;70.90;;;;;;5092931;28;20287;-85
2022/06/11 07:11:20;;;;;;;5.13;4.18;;;20.10;70.50;;;;;;5068532;28;20180;-85
2022/06/11 07:13:46;;;;;;;5.57;4.53;;;20.20;69.50;;;;;;5085030;28;20241;-84
2022/06/11 07:16:15;;;;;;;5.05;4.50;;;20.50;67.70;;;;;;5085207;28;20585;-85
2022/06/11 07:18:46;;;;;;;4.47;4.05;;;20.50;68.30;;;;;;5092424;28;20241;-85
2022/06/11 07:21:25;;;;;;;6.07;4.05;;;20.50;68.40;;;;;;5087257;28;20179;-84
2022/06/11 07:23:58;;;;;;;4.75;4.35;;;20.70;67.00;;;;;;5088436;28;20205;-84
2022/06/11 07:26:29;;;;;;;6.55;4.32;;;20.70;67.10;;;;;;5086885;28;20203;-84
2022/06/11 07:29:02;;;;;;;4.68;3.97;;;20.70;66.20;;;;;;5086872;28;20211;-83
2022/06/11 07:31:30;;;;;;;8.68;4.40;;;20.70;67.70;;;;;;5089747;28;20192;-84
2022/06/11 07:33:57;;;;;;;7.63;4.22;;;20.80;65.60;;;;;;5090344;28;20217;-84
2022/06/11 07:36:24;;;;;;;4.85;4.00;;;20.90;63.00;;;;;;5066103;28;20182;-84
2022/06/11 07:38:50;;;;;;;9.75;4.95;;;20.90;63.70;;;;;;5087737;28;20184;-85
2022/06/11 07:41:16;;;;;;;5.25;4.30;;;20.90;64.00;;;;;;5085194;28;20189;-84
2022/06/11 07:43:42;;;;;;;5.32;4.10;;;21.00;64.40;;;;;;5087771;28;21639;-84
2022/06/11 07:46:08;;;;;;;12.18;4.20;;;21.20;63.40;;;;;;5087190;28;20223;-83
2022/06/11 07:48:34;;;;;;;6.07;4.40;;;21.30;62.50;;;;;;5091385;28;20213;-85
2022/06/11 07:51:00;;;;;;;5.78;4.18;;;21.40;61.70;;;;;;5087954;28;20273;-85
2022/06/11 07:53:26;;;;;;;4.18;3.88;;;21.50;60.20;;;;;;5097359;28;20259;-85
2022/06/11 07:55:54;;;;;;;6.95;4.22;;;21.70;61.70;;;;;;5093155;28;20193;-85
2022/06/11 07:58:26;;;;;;;4.18;3.75;;;21.70;59.80;;;;;;5073274;28;20616;-84
2022/06/11 08:00:57;;;;;;;5.35;4.40;;;21.90;60.40;;;;;;5091936;28;20199;-85
2022/06/11 08:03:24;;;;;;;5.15;4.25;;;21.90;59.00;;;;;;5090707;28;20199;-85
2022/06/11 08:05:52;;;;;;;5.18;4.15;;;21.90;59.40;;;;;;5086578;28;20211;-85
2022/06/11 08:08:18;;;;;;;4.68;3.85;;;22.30;59.40;;;;;;5068345;28;20296;-85
2022/06/11 08:10:44;;;;;;;5.20;3.92;;;22.50;58.40;;;;;;5077389;28;20176;-85
2022/06/11 08:13:11;;;;;;;7.15;3.50;;;22.60;58.60;;;;;;5082369;28;20467;-85
2022/06/11 08:15:40;;;;;;;5.75;3.75;;;22.70;57.60;;;;;;5078557;28;20243;-86
2022/06/11 08:18:06;;;;;;;4.35;3.70;;;22.70;54.50;;;;;;5077035;28;20192;-85
2022/06/11 08:20:33;;;;;;;4.38;3.70;;;22.90;57.10;;;;;;5083508;28;20217;-85
2022/06/11 08:22:59;;;;;;;4.90;3.65;;;23.10;56.00;;;;;;5087313;28;20215;-86
2022/06/11 08:25:25;;;;;;;8.40;4.07;;;23.30;54.00;;;;;;5082251;28;20206;-85
2022/06/11 08:27:52;;;;;;;4.75;4.35;;;23.40;53.80;;;;;;5091379;28;20258;-85
2022/06/11 08:30:21;;;;;;;4.43;4.10;;;23.40;54.70;;;;;;5085217;28;20194;-85
2022/06/11 08:32:47;;;;;;;4.47;4.07;;;23.60;55.00;;;;;;5078835;28;20203;-86
2022/06/11 08:35:14;;;;;;;4.47;4.07;;;23.60;54.60;;;;;;5079085;28;20261;-85
2022/06/11 08:37:41;;;;;;;4.47;3.95;;;23.50;53.20;;;;;;5076778;28;20196;-85
2022/06/11 08:40:12;;;;;;;4.72;3.70;;;23.80;55.00;;;;;;5086866;28;20251;-85
2022/06/11 08:42:42;;;;;;;4.30;3.72;;;23.80;53.80;;;;;;5076147;28;20267;-85
2022/06/11 08:45:24;;;;;;;4.60;3.47;;;24.10;51.80;;;;;;5081204;28;20211;-85
2022/06/11 08:47:52;;;;;;;12.50;4.15;;;24.30;49.30;;;;;;5076397;28;20207;-85
2022/06/11 08:50:27;;;;;;;6.18;3.88;;;24.50;49.50;;;;;;5084275;28;20204;-85
2022/06/11 08:52:54;;;;;;;6.82;3.78;;;24.40;48.40;;;;;;5080268;28;20203;-85
2022/06/11 08:55:21;;;;;;;4.57;3.42;;;24.50;48.10;;;;;;5083139;28;20186;-85
2022/06/11 08:57:58;;;;;;;3.92;3.60;;;24.60;48.10;;;;;;5082438;28;20194;-85
2022/06/11 09:01:06;;;;;;;7.13;4.03;;;24.70;48.20;;;;;;5087367;28;20183;-85
2022/06/11 09:04:00;;;;;;;5.40;3.17;;;24.80;48.00;;;;;;5080898;28;20210;-85
2022/06/11 09:06:44;;;;;;;7.65;3.83;;;25.00;46.20;;;;;;5077645;28;20216;-84
2022/06/11 09:09:34;;;;;;;4.85;3.72;;;25.00;45.50;;;;;;5071828;28;20211;-82
2022/06/11 09:12:18;;;;;;;4.18;3.13;;;24.90;44.90;;;;;;5079129;28;20190;-82
2022/06/11 09:15:06;;;;;;;4.03;3.50;;;24.80;48.80;;;;;;5072155;28;20648;-83
2022/06/11 09:18:00;;;;;;;3.72;3.40;;;25.00;48.20;;;;;;5073121;28;20203;-83
2022/06/11 09:20:56;;;;;;;4.25;3.22;;;25.40;47.90;;;;;;5075877;28;20681;-83
2022/06/11 09:23:47;;;;;;;5.32;3.42;;;25.70;44.70;;;;;;5075343;28;20221;-83
2022/06/11 09:26:36;;;;;;;4.15;3.35;;;26.00;46.20;;;;;;5079199;28;20200;-83
2022/06/11 09:29:16;;;;;;;5.55;3.10;;;26.10;44.40;;;;;;5069672;28;20207;-83
2022/06/11 09:31:50;;;;;;;6.22;2.97;;;26.30;39.90;;;;;;5071226;28;20175;-82
2022/06/11 09:34:31;;;;;;;4.32;3.40;;;26.50;40.50;;;;;;5074941;28;20270;-80
2022/06/11 09:37:31;;;;;;;8.23;3.70;;;26.50;41.10;;;;;;5075797;28;20193;-81
2022/06/11 09:40:19;;;;;;;6.25;3.53;;;26.50;42.80;;;;;;5074408;28;20198;-81
2022/06/11 09:43:03;;;;;;;5.20;3.38;;;26.80;41.10;;;;;;5077830;28;20310;-83
2022/06/11 09:46:09;;;;;;;5.05;2.80;;;26.80;42.40;;;;;;5072779;28;20190;-82
2022/06/11 09:48:53;;;;;;;5.13;2.78;;;27.00;38.10;;;;;;5071642;28;20218;-82
2022/06/11 09:51:42;;;;;;;3.55;2.95;;;27.10;37.60;;;;;;5070858;28;20542;-82
2022/06/11 09:54:31;;;;;;;3.88;2.83;;;27.20;36.60;;;;;;5072573;28;20176;-81
2022/06/11 09:57:11;;;;;;;4.15;2.63;;;27.60;35.90;;;;;;5076064;28;20248;-81
2022/06/11 09:59:45;;;;;;;4.00;2.50;;;27.60;34.20;;;;;;5080869;28;20178;-82
2022/06/11 10:02:30;;;;;;;6.55;2.90;;;27.60;35.40;;;;;;5077301;28;20219;-82
2022/06/11 10:04:59;;;;;;;5.13;3.20;;;27.80;36.20;;;;;;5079595;28;20293;-80
2022/06/11 10:07:32;;;;;;;4.68;2.83;;;27.80;36.10;;;;;;5085806;28;20203;-82
2022/06/11 10:10:15;;;;;;;4.97;2.50;;;28.00;36.90;;;;;;5070964;28;20186;-82
2022/06/11 10:12:48;;;;;;;3.10;2.83;;;28.10;35.90;;;;;;5083002;28;20347;-82
2022/06/11 10:15:33;;;;;;;6.53;3.28;;;28.30;36.00;;;;;;5090752;28;20238;-83
2022/06/11 10:18:31;;;;;;;6.25;3.10;;;28.40;37.00;;;;;;5075098;28;20187;-81
2022/06/11 10:21:03;;;;;;;4.55;3.03;;;28.50;35.50;;;;;;5064050;28;20184;-82
2022/06/11 10:23:35;;;;;;;4.80;2.85;;;28.50;36.40;;;;;;5078960;28;20404;-82
2022/06/11 10:26:30;;;;;;;4.57;3.00;;;28.50;36.30;;;;;;5070998;28;20798;-81
2022/06/11 10:29:13;;;;;;;4.68;3.20;;;28.60;35.70;;;;;;5070856;28;20671;-82
2022/06/11 10:31:43;;;;;;;3.83;3.00;;;28.70;33.90;;;;;;5075390;28;20187;-83
2022/06/11 10:34:24;;;;;;;5.03;2.88;;;28.60;34.60;;;;;;5077918;28;20651;-83
2022/06/11 10:37:07;;;;;;;14.02;4.13;;;28.70;34.90;;;;;;5073779;28;20184;-83
2022/06/11 10:39:51;;;;;;;18.48;3.53;;;28.80;34.30;;;;;;5076817;28;20187;-82
2022/06/11 10:42:43;;;;;;;3.15;2.85;;;28.90;34.70;;;;;;5082860;28;20210;-83
2022/06/11 10:45:13;;;;;;;3.30;2.90;;;29.20;34.10;;;;;;5079254;28;20188;-83
2022/06/11 10:47:46;;;;;;;3.45;3.10;;;29.30;34.60;;;;;;5081871;28;20685;-83
2022/06/11 10:50:12;;;;;;;4.03;2.97;;;29.50;33.50;;;;;;5073729;28;20546;-82
2022/06/11 10:52:40;;;;;;;3.58;3.15;;;29.60;33.40;;;;;;5078619;28;20211;-82
2022/06/11 10:55:11;;;;;;;5.00;2.75;;;29.40;34.40;;;;;;5082285;28;20188;-83
2022/06/11 10:57:38;;;;;;;4.40;2.78;;;29.40;34.00;;;;;;5085070;28;20878;-82
2022/06/11 11:00:04;;;;;;;3.35;2.75;;;29.60;33.90;;;;;;5064014;28;20274;-81
2022/06/11 11:02:53;;;;;;;3.95;2.70;;;29.60;33.20;;;;;;5080192;28;20237;-82
2022/06/11 11:05:20;;;;;;;3.33;2.70;;;29.90;32.70;;;;;;5076678;28;20203;-82
2022/06/11 11:07:55;;;;;;;5.32;2.97;;;29.90;32.50;;;;;;5083283;28;20210;-82
2022/06/11 11:10:46;;;;;;;6.40;2.80;;;30.10;33.20;;;;;;5079227;28;20243;-83
2022/06/11 11:13:27;;;;;;;4.15;3.00;;;30.10;32.80;;;;;;5075973;28;20211;-82
2022/06/11 11:16:23;;;;;;;3.88;2.92;;;30.20;32.90;;;;;;5077997;28;20218;-82
2022/06/11 11:18:48;;;;;;;3.30;3.00;;;30.20;32.20;;;;;;5074549;28;20187;-83
2022/06/11 11:21:33;;;;;;;3.20;2.90;;;30.30;32.10;;;;;;5073761;28;20551;-82
2022/06/11 11:24:13;;;;;;;3.75;2.70;;;30.60;31.40;;;;;;5078070;28;20211;-82
2022/06/11 11:27:04;;;;;;;4.07;2.95;;;30.50;31.60;;;;;;5068459;28;20285;-81
2022/06/11 11:29:35;;;;;;;3.00;2.70;;;30.60;32.40;;;;;;5073835;28;20214;-83
2022/06/11 11:32:04;;;;;;;4.45;2.70;;;30.90;31.40;;;;;;5074706;28;20520;-81
2022/06/11 11:34:46;;;;;;;3.92;2.60;;;31.00;31.30;;;;;;5073378;28;20187;-82
2022/06/11 11:37:12;;;;;;;4.00;2.97;;;31.10;31.60;;;;;;5074397;28;20258;-82
2022/06/11 11:39:47;;;;;;;4.05;3.63;;;31.00;32.10;;;;;;5073691;28;20284;-81
2022/06/11 11:42:17;;;;;;;3.42;2.92;;;31.00;31.20;;;;;;5075636;28;20207;-82
2022/06/11 11:44:49;;;;;;;3.92;2.88;;;31.10;30.60;;;;;;5075717;28;20203;-82
2022/06/11 11:47:24;;;;;;;3.97;3.00;;;31.10;31.00;;;;;;5075168;28;20203;-81
2022/06/11 11:49:54;;;;;;;3.47;3.00;;;31.50;31.30;;;;;;5077694;28;20194;-82
2022/06/11 11:52:23;;;;;;;4.13;2.85;;;31.50;30.60;;;;;;5076762;28;20213;-82
2022/06/11 11:55:00;;;;;;;4.70;3.47;;;31.40;30.10;;;;;;5075390;28;20207;-82
2022/06/11 11:57:31;;;;;;;6.60;3.17;;;31.60;30.60;;;;;;5073427;28;20274;-82
2022/06/11 12:00:07;;;;;;;3.97;3.20;;;31.60;30.80;;;;;;5075445;28;20275;-83
2022/06/11 12:02:56;;;;;;;5.65;3.00;;;31.70;30.20;;;;;;5074932;28;20199;-81
2022/06/11 12:05:25;;;;;;;7.03;3.15;;;31.60;30.00;;;;;;5057961;28;20555;-81
2022/06/11 12:07:54;;;;;;;3.75;2.80;;;31.70;30.20;;;;;;5078036;28;20306;-83
2022/06/11 12:10:36;;;;;;;3.85;3.17;;;32.00;30.70;;;;;;5077169;28;20191;-81
2022/06/11 12:13:03;;;;;;;3.30;3.00;;;32.30;30.20;;;;;;5080452;28;20199;-82
2022/06/11 12:15:32;;;;;;;5.15;2.97;;;32.10;30.60;;;;;;5080579;28;20191;-82
2022/06/11 12:18:13;;;;;;;4.18;3.20;;;32.30;30.30;;;;;;5075101;28;20255;-82
2022/06/11 12:20:50;;;;;;;4.15;3.03;;;32.40;30.50;;;;;;5074843;28;20562;-83
2022/06/11 12:23:33;;;;;;;4.50;3.20;;;32.60;30.20;;;;;;5080346;28;20545;-81
2022/06/11 12:26:03;;;;;;;6.22;2.97;;;32.70;30.70;;;;;;5071793;28;20187;-82
2022/06/11 12:28:34;;;;;;;4.93;3.45;;;32.40;30.10;;;;;;5078331;28;20195;-82
2022/06/11 12:31:00;;;;;;;4.05;3.08;;;32.10;30.70;;;;;;5086149;28;20215;-81
2022/06/11 12:33:27;;;;;;;4.38;2.75;;;32.10;30.80;;;;;;5078053;28;20215;-81
2022/06/11 12:36:28;;;;;;;4.55;2.83;;;32.30;31.60;;;;;;5080520;28;20198;-82
2022/06/11 12:39:21;;;;;;;5.70;3.10;;;32.80;29.90;;;;;;5070377;28;20181;-82
2022/06/11 12:41:50;;;;;;;3.22;2.88;;;33.00;29.90;;;;;;5070505;28;20187;-82
2022/06/11 12:45:00;;;;;;;5.28;3.55;;;33.00;29.40;;;;;;5081888;28;20207;-81
2022/06/11 12:48:24;;;;;;;4.60;3.30;;;33.00;29.30;;;;;;5072164;28;20227;-83
2022/06/11 12:51:16;;;;;;;5.28;2.90;;;33.10;29.70;;;;;;5016778;28;20219;-83
2022/06/11 12:54:00;;;;;;;3.65;3.35;;;33.10;29.20;;;;;;5075240;28;20431;-82
2022/06/11 12:56:36;;;;;;;3.90;3.13;;;33.30;29.40;;;;;;5076269;28;20515;-83
2022/06/11 12:59:15;;;;;;;6.22;3.10;;;33.60;28.80;;;;;;5080596;28;20314;-83
2022/06/11 13:01:56;;;;;;;4.07;3.08;;;33.60;29.10;;;;;;5076478;28;20655;-81
2022/06/11 13:04:55;;;;;;;4.18;3.40;;;33.80;28.60;;;;;;5079877;28;20187;-82
2022/06/11 13:07:55;;;;;;;3.72;3.42;;;33.80;28.50;;;;;;5083370;28;20200;-83
2022/06/11 13:10:36;;;;;;;4.20;3.60;;;34.40;27.70;;;;;;5085421;28;20163;-84
2022/06/11 13:13:37;;;;;;;3.67;3.30;;;34.70;27.80;;;;;;5084923;28;20207;-84
2022/06/11 13:17:00;;;;;;;3.75;3.40;;;34.80;27.00;;;;;;5082049;28;20201;-83
2022/06/11 13:19:28;;;;;;;3.78;3.45;;;34.20;28.20;;;;;;5019570;28;20197;-82
2022/06/11 13:22:02;;;;;;;4.43;3.50;;;34.10;28.20;;;;;;4991462;28;20264;-82